Herington, Kansas
Current Conditions -  °F | °C
As of 12:38 PM on Saturday 25 Oct 2014 (Local Time) from KFRI Reporting Station
Haze Haze  
Wind Chill: 79°   Ceiling: Unl
Heat Index: 81°   Visibility: 1.2mi
Dew Point: 64°   Wind: 6mph
Humidity: 61%   Direction: 20°NNE
Pressure: 30.05"   Gusts: NA
Location:  38.67°N, 96.94°W
Report Text: KFRI 251738Z AUTO 02005KT 1 1/4SM HZ CLR 26/18 A3005 RMK AO2 VIS 1 1/4V4
Loading
Personal Weather Stations






























Interactive Weather Map
Tropical Storm Tracking
New forecast layout! Learn more

10-Day Weather Forecast

Advertisements
Track Severe Weather on mobile